createdAt,value
2018-01-10T00:02:16.794Z,27.67
2018-01-10T00:04:44.587Z,22.57
2018-01-10T00:07:12.056Z,33.47
2018-01-10T00:09:39.520Z,21.40
2018-01-10T00:12:07.244Z,19.77
2018-01-10T00:14:34.700Z,23.47
2018-01-10T00:17:02.164Z,26.50
2018-01-10T00:19:29.918Z,18.20
2018-01-10T00:21:57.369Z,23.00
2018-01-10T00:24:24.841Z,18.43
2018-01-10T00:26:52.921Z,20.60
2018-01-10T00:29:20.383Z,24.87
2018-01-10T00:31:47.846Z,19.23
2018-01-10T00:34:15.610Z,21.83
2018-01-10T00:36:43.069Z,23.97
2018-01-10T00:39:10.536Z,20.50
2018-01-10T00:41:38.298Z,25.87
2018-01-10T00:44:05.772Z,23.33
2018-01-10T00:46:33.237Z,23.03
2018-01-10T00:49:00.981Z,19.60
2018-01-10T00:51:28.448Z,24.23
2018-01-10T00:53:55.902Z,25.43
2018-01-10T00:56:23.976Z,20.67
2018-01-10T00:58:52.432Z,19.70
2018-01-10T01:01:19.899Z,23.63
2018-01-10T01:03:47.885Z,18.33
2018-01-10T01:06:15.341Z,18.17
2018-01-10T01:08:42.806Z,22.20
2018-01-10T01:11:10.894Z,35.70
2018-01-10T01:13:38.353Z,20.03
2018-01-10T01:16:05.818Z,18.47
2018-01-10T01:18:33.573Z,24.20
2018-01-10T01:21:01.037Z,22.90
2018-01-10T01:23:28.503Z,18.50
2018-01-10T01:25:56.253Z,16.37
2018-01-10T01:28:23.709Z,22.67
2018-01-10T01:30:51.167Z,18.30
2018-01-10T01:33:18.956Z,28.40
2018-01-10T01:35:46.415Z,25.97
2018-01-10T01:38:13.875Z,24.37
2018-01-10T01:40:41.636Z,19.47
2018-01-10T01:43:09.094Z,20.57
2018-01-10T01:45:36.560Z,27.20
2018-01-10T01:48:04.411Z,23.13
2018-01-10T01:50:31.873Z,18.73
2018-01-10T01:52:59.345Z,21.27
2018-01-10T01:55:27.325Z,16.17
2018-01-10T01:57:54.781Z,17.77
2018-01-10T02:00:23.409Z,25.10
2018-01-10T02:02:51.241Z,17.87
2018-01-10T02:05:18.737Z,21.67
2018-01-10T02:07:46.231Z,24.00
2018-01-10T02:10:13.966Z,18.07
2018-01-10T02:12:41.432Z,23.33
2018-01-10T02:15:08.884Z,19.80
2018-01-10T02:17:36.603Z,19.70
2018-01-10T02:20:04.081Z,19.67
2018-01-10T02:22:32.461Z,23.17
2018-01-10T02:25:00.218Z,27.10
2018-01-10T02:27:27.672Z,31.27
2018-01-10T02:29:55.130Z,24.67
2018-01-10T02:32:22.904Z,25.17
2018-01-10T02:34:50.360Z,23.97
2018-01-10T02:37:17.813Z,24.77
2018-01-10T02:39:45.893Z,16.50
2018-01-10T02:42:25.175Z,19.57
2018-01-10T02:44:53.428Z,21.87
2018-01-10T02:47:21.107Z,18.87
2018-01-10T02:49:48.569Z,21.50
2018-01-10T02:52:16.417Z,16.97
2018-01-10T02:54:43.875Z,18.70
2018-01-10T02:57:11.345Z,17.03
2018-01-10T02:59:39.404Z,22.60
2018-01-10T03:02:07.520Z,18.07
2018-01-10T03:04:34.984Z,20.60
2018-01-10T03:07:03.018Z,17.33
2018-01-10T03:09:30.481Z,26.50
2018-01-10T03:11:57.945Z,19.37
2018-01-10T03:14:25.756Z,19.37
2018-01-10T03:16:53.213Z,25.37
2018-01-10T03:19:20.673Z,23.10
2018-01-10T03:21:48.689Z,38.70
2018-01-10T03:24:16.147Z,24.63
2018-01-10T03:26:43.613Z,22.17
2018-01-10T03:29:11.297Z,22.10
2018-01-10T03:31:38.752Z,20.87
2018-01-10T03:34:06.216Z,20.07
2018-01-10T03:36:34.069Z,21.40
2018-01-10T03:39:01.558Z,20.90
2018-01-10T03:41:29.028Z,18.03
2018-01-10T03:43:57.069Z,22.87
2018-01-10T03:46:24.529Z,26.60
2018-01-10T03:48:51.985Z,20.63
2018-01-10T03:51:19.745Z,31.50
2018-01-10T03:53:47.271Z,25.90
2018-01-10T03:56:14.729Z,31.00
2018-01-10T03:58:42.444Z,28.83
2018-01-10T04:01:10.819Z,29.70
2018-01-10T04:03:38.349Z,27.10
2018-01-10T04:06:06.045Z,35.97
2018-01-10T04:08:33.506Z,25.37
2018-01-10T04:11:00.963Z,28.47
2018-01-10T04:13:28.717Z,26.87
2018-01-10T04:15:56.171Z,24.87
2018-01-10T04:18:23.630Z,25.37
2018-01-10T04:20:51.722Z,30.37
2018-01-10T04:23:19.186Z,27.43
2018-01-10T04:25:46.648Z,26.43
2018-01-10T04:28:14.410Z,33.80
2018-01-10T04:30:41.868Z,35.20
2018-01-10T04:33:09.332Z,32.77
2018-01-10T04:35:37.104Z,34.40
2018-01-10T04:38:04.556Z,31.83
2018-01-10T04:40:32.021Z,36.67
2018-01-10T04:42:59.780Z,30.60
2018-01-10T04:45:27.246Z,32.37
2018-01-10T04:47:54.714Z,35.83
2018-01-10T04:50:22.472Z,30.83
2018-01-10T04:52:49.925Z,33.87
2018-01-10T04:55:17.376Z,31.33
2018-01-10T04:57:45.108Z,29.40
2018-01-10T05:00:12.565Z,27.77
2018-01-10T05:02:40.028Z,30.93
2018-01-10T05:11:51.914Z,36.57
2018-01-10T05:14:19.368Z,31.90
2018-01-10T05:16:46.821Z,31.90
2018-01-10T05:19:14.820Z,29.80
2018-01-10T05:21:42.278Z,39.73
2018-01-10T05:24:09.745Z,38.87
2018-01-10T05:26:37.507Z,34.20
2018-01-10T05:29:04.969Z,52.53
2018-01-10T05:31:32.426Z,37.80
2018-01-10T05:34:00.242Z,36.70
2018-01-10T05:36:27.701Z,29.30
2018-01-10T05:38:55.158Z,44.23
2018-01-10T05:41:22.871Z,35.97
2018-01-10T05:43:50.325Z,48.40
2018-01-10T05:46:17.785Z,47.80
2018-01-10T05:48:45.385Z,39.07
2018-01-10T05:51:12.832Z,41.37
2018-01-10T05:53:40.285Z,36.53
2018-01-10T05:56:07.990Z,33.47
2018-01-10T05:58:35.453Z,49.10
2018-01-10T06:01:02.912Z,46.00
2018-01-10T06:03:30.758Z,34.73
2018-01-10T06:05:58.472Z,41.47
2018-01-10T06:08:25.938Z,37.17
2018-01-10T06:10:53.877Z,36.00
2018-01-10T06:13:21.343Z,35.77
2018-01-10T06:15:48.804Z,32.20
2018-01-10T06:18:16.621Z,35.13
2018-01-10T06:20:44.089Z,34.87
2018-01-10T06:23:11.548Z,31.17
2018-01-10T06:25:39.616Z,52.37
2018-01-10T06:28:07.074Z,41.73
2018-01-10T06:30:34.590Z,42.20
2018-01-10T06:33:02.617Z,46.33
2018-01-10T06:35:30.081Z,45.60
2018-01-10T06:37:57.545Z,38.13
2018-01-10T06:40:25.268Z,40.33
2018-01-10T06:42:52.720Z,42.80
2018-01-10T06:45:20.180Z,38.00
2018-01-10T06:47:47.853Z,38.37
2018-01-10T06:50:15.313Z,39.57
2018-01-10T06:52:42.788Z,43.27
2018-01-10T06:55:10.510Z,54.33
2018-01-10T06:57:37.967Z,38.50
2018-01-10T07:00:05.429Z,35.27
2018-01-10T07:02:33.366Z,45.83
2018-01-10T07:05:00.833Z,40.50
2018-01-10T07:07:28.703Z,41.50
2018-01-10T07:09:57.276Z,37.93
2018-01-10T07:12:24.736Z,41.13
2018-01-10T07:14:52.197Z,41.27
2018-01-10T07:17:19.963Z,45.13
2018-01-10T07:19:47.429Z,37.77
2018-01-10T07:22:14.887Z,40.20
2018-01-10T07:24:43.261Z,48.80
2018-01-10T07:27:10.728Z,43.13
2018-01-10T07:29:38.180Z,40.67
2018-01-10T07:32:05.936Z,31.70
2018-01-10T07:34:33.389Z,38.60
2018-01-10T07:37:00.854Z,38.30
2018-01-10T07:39:28.894Z,41.30
2018-01-10T07:41:56.357Z,39.27
2018-01-10T07:44:23.821Z,64.73
2018-01-10T07:46:51.594Z,37.80
2018-01-10T07:49:19.049Z,32.90
2018-01-10T07:51:46.514Z,28.17
2018-01-10T07:54:14.321Z,25.70
2018-01-10T07:56:41.781Z,31.97
2018-01-10T07:59:09.254Z,29.57
2018-01-10T08:01:38.153Z,31.13
2018-01-10T08:04:06.250Z,33.40
2018-01-10T08:06:33.723Z,30.73
2018-01-10T08:09:02.148Z,37.27
2018-01-10T08:11:29.610Z,42.87
2018-01-10T08:13:57.068Z,36.37
2018-01-10T08:16:25.139Z,34.87
2018-01-10T08:18:52.769Z,40.20
2018-01-10T08:21:20.232Z,32.40
2018-01-10T08:23:48.137Z,34.93
2018-01-10T08:26:15.593Z,44.30
2018-01-10T08:28:44.329Z,59.17
2018-01-10T08:31:12.079Z,38.10
2018-01-10T08:33:39.557Z,53.77
2018-01-10T08:36:07.015Z,53.07
2018-01-10T08:38:34.733Z,40.20
2018-01-10T08:41:02.191Z,45.10
2018-01-10T08:43:29.648Z,49.37
2018-01-10T08:45:57.732Z,44.87
2018-01-10T08:48:25.290Z,40.00
2018-01-10T08:50:52.718Z,34.90
2018-01-10T08:53:20.432Z,42.90
2018-01-10T08:55:48.831Z,45.33
2018-01-10T08:58:16.307Z,34.10
2018-01-10T09:00:44.033Z,42.40
2018-01-10T09:03:11.501Z,44.00
2018-01-10T09:05:38.954Z,44.17
2018-01-10T09:08:06.714Z,39.53
2018-01-10T09:10:36.000Z,35.57
2018-01-10T09:13:03.457Z,38.80
2018-01-10T09:15:31.237Z,42.40
2018-01-10T09:17:58.704Z,37.63
2018-01-10T09:20:26.167Z,40.00
2018-01-10T09:22:53.936Z,40.30
2018-01-10T09:25:21.398Z,44.50
2018-01-10T09:27:48.855Z,34.97
2018-01-10T09:30:16.573Z,35.93
2018-01-10T09:32:44.031Z,32.73
2018-01-10T09:35:11.485Z,43.87
2018-01-10T09:37:39.317Z,45.60
2018-01-10T09:40:06.816Z,44.83
2018-01-10T09:42:34.258Z,47.00
2018-01-10T09:45:02.006Z,41.27
2018-01-10T09:47:29.459Z,46.63
2018-01-10T09:49:56.925Z,54.10
2018-01-10T09:52:24.668Z,34.33
2018-01-10T09:54:52.126Z,32.43
2018-01-10T09:57:19.582Z,29.97
2018-01-10T09:59:47.296Z,33.47
2018-01-10T10:02:14.748Z,37.30
2018-01-10T10:04:42.218Z,31.07
2018-01-10T10:07:10.052Z,36.47
2018-01-10T10:09:37.512Z,27.87
2018-01-10T10:12:05.402Z,35.07
2018-01-10T10:14:33.125Z,25.97
2018-01-10T10:17:00.578Z,37.27
2018-01-10T10:19:28.036Z,35.50
2018-01-10T10:21:55.729Z,27.47
2018-01-10T10:24:23.186Z,26.80
2018-01-10T10:26:50.639Z,29.90
2018-01-10T10:29:18.417Z,28.13
2018-01-10T10:31:45.873Z,34.10
2018-01-10T10:34:13.338Z,40.90
2018-01-10T10:36:41.053Z,28.53
2018-01-10T10:39:08.513Z,31.73
2018-01-10T10:41:35.974Z,23.40
2018-01-10T10:44:03.784Z,38.90
2018-01-10T10:46:31.237Z,34.10
2018-01-10T10:48:58.693Z,36.70
2018-01-10T10:51:26.444Z,31.53
2018-01-10T10:53:53.900Z,40.07
2018-01-10T10:56:21.353Z,42.03
2018-01-10T10:58:48.988Z,29.87
2018-01-10T11:01:16.456Z,25.73
2018-01-10T11:03:43.914Z,27.70
2018-01-10T11:06:11.853Z,29.40
2018-01-10T11:08:39.302Z,28.03
2018-01-10T11:11:06.773Z,30.73
2018-01-10T11:13:35.785Z,36.17
2018-01-10T11:16:03.242Z,30.90
2018-01-10T11:18:30.700Z,34.63
2018-01-10T11:20:58.439Z,27.33
2018-01-10T11:23:26.006Z,28.07
2018-01-10T11:25:53.467Z,34.60
2018-01-10T11:28:27.605Z,24.63
2018-01-10T11:30:55.060Z,26.93
2018-01-10T11:33:22.507Z,35.33
2018-01-10T11:35:50.280Z,26.13
2018-01-10T11:38:17.735Z,32.00
2018-01-10T11:40:45.209Z,31.10
2018-01-10T11:43:13.268Z,31.33
2018-01-10T11:45:40.758Z,23.93
2018-01-10T11:48:08.185Z,41.13
2018-01-10T11:50:35.826Z,30.10
2018-01-10T11:53:03.286Z,34.00
2018-01-10T11:55:30.742Z,32.30
2018-01-10T11:57:58.664Z,32.30
2018-01-10T12:00:26.118Z,31.57
2018-01-10T12:02:53.568Z,29.30
2018-01-10T12:05:21.344Z,27.07
2018-01-10T12:07:48.816Z,30.50
2018-01-10T12:10:16.260Z,36.80
2018-01-10T12:12:44.024Z,37.00
2018-01-10T12:15:12.178Z,29.07
2018-01-10T12:17:39.635Z,37.87
2018-01-10T12:20:07.640Z,29.93
2018-01-10T12:22:35.142Z,31.40
2018-01-10T12:25:02.600Z,33.07
2018-01-10T12:27:30.327Z,28.73
2018-01-10T12:29:57.784Z,39.23
2018-01-10T12:32:25.250Z,31.60
2018-01-10T12:34:53.316Z,37.40
2018-01-10T12:37:20.770Z,31.50
2018-01-10T12:39:48.321Z,32.87
2018-01-10T12:42:16.572Z,24.70
2018-01-10T12:44:44.033Z,28.07
2018-01-10T12:47:11.515Z,30.00
2018-01-10T12:49:39.630Z,31.67
2018-01-10T12:52:07.089Z,29.27
2018-01-10T12:54:34.541Z,28.40
2018-01-10T12:57:02.299Z,23.10
2018-01-10T12:59:29.761Z,23.90
2018-01-10T13:01:57.220Z,29.00
2018-01-10T13:04:24.985Z,27.23
2018-01-10T13:06:52.452Z,27.13
2018-01-10T13:09:19.920Z,22.97
2018-01-10T13:11:47.677Z,28.43
2018-01-10T13:14:15.141Z,24.43
2018-01-10T13:16:42.849Z,37.43
2018-01-10T13:19:10.603Z,28.63
2018-01-10T13:21:38.074Z,25.47
2018-01-10T13:24:05.545Z,26.27
2018-01-10T13:26:33.692Z,29.47
2018-01-10T13:29:01.163Z,30.13
2018-01-10T13:31:28.609Z,32.87
2018-01-10T13:33:56.416Z,36.00
2018-01-10T13:36:23.903Z,34.53
2018-01-10T13:38:51.399Z,34.33
2018-01-10T13:41:19.354Z,28.30
2018-01-10T13:43:47.025Z,30.60
2018-01-10T13:46:14.511Z,40.40
2018-01-10T13:48:42.348Z,30.50
2018-01-10T13:51:09.800Z,36.07
2018-01-10T13:53:37.263Z,31.50
2018-01-10T13:56:04.933Z,30.23
2018-01-10T13:58:32.393Z,25.47
2018-01-10T14:00:59.858Z,35.63
2018-01-10T14:03:27.709Z,34.07
2018-01-10T14:05:55.166Z,34.70
2018-01-10T14:08:22.623Z,31.83
2018-01-10T14:10:50.294Z,35.60
2018-01-10T14:13:17.761Z,25.90
2018-01-10T14:15:45.222Z,28.73
2018-01-10T14:18:13.701Z,31.07
2018-01-10T14:20:41.217Z,29.53
2018-01-10T14:23:08.705Z,33.93
2018-01-10T14:25:36.289Z,36.63
2018-01-10T14:28:03.926Z,34.80
2018-01-10T14:30:31.390Z,31.70
2018-01-10T14:32:59.374Z,47.23
2018-01-10T14:35:26.826Z,36.07
2018-01-10T14:37:54.278Z,50.97
2018-01-10T14:40:22.066Z,44.80
2018-01-10T14:42:49.522Z,41.57
2018-01-10T14:45:16.981Z,40.60
2018-01-10T14:47:44.759Z,68.07
2018-01-10T14:50:12.219Z,42.20
2018-01-10T14:52:39.677Z,41.97
2018-01-10T14:55:07.473Z,42.30
2018-01-10T14:57:34.925Z,37.10
2018-01-10T15:00:02.384Z,44.33
2018-01-10T15:02:30.134Z,47.57
2018-01-10T15:04:57.609Z,40.33
2018-01-10T15:07:25.074Z,40.63
2018-01-10T15:09:52.809Z,50.10
2018-01-10T15:12:20.265Z,43.67
2018-01-10T15:14:47.726Z,34.70
2018-01-10T15:17:15.817Z,48.23
2018-01-10T15:19:43.349Z,42.63
2018-01-10T15:22:10.818Z,49.50
2018-01-10T15:24:38.810Z,41.20
2018-01-10T15:27:06.273Z,37.77
2018-01-10T15:29:33.736Z,42.10
2018-01-10T15:32:01.494Z,35.53
2018-01-10T15:34:28.954Z,43.70
2018-01-10T15:36:56.425Z,37.73
2018-01-10T15:39:24.490Z,53.40
2018-01-10T15:41:51.956Z,59.27
2018-01-10T15:44:19.416Z,49.17
2018-01-10T15:46:47.084Z,48.83
2018-01-10T15:49:14.547Z,43.60
2018-01-10T15:51:42.005Z,49.23
2018-01-10T15:54:09.861Z,45.43
2018-01-10T15:56:37.322Z,37.83
2018-01-10T15:59:04.788Z,41.30
2018-01-10T16:01:32.541Z,38.77
2018-01-10T16:04:00.025Z,42.77
2018-01-10T16:06:27.493Z,38.30
2018-01-10T16:08:55.239Z,42.43
2018-01-10T16:11:22.702Z,52.63
2018-01-10T16:13:50.170Z,55.47
2018-01-10T16:16:17.917Z,53.37
2018-01-10T16:18:45.389Z,51.10
2018-01-10T16:21:14.754Z,51.00
2018-01-10T16:23:42.442Z,46.30
2018-01-10T16:26:09.899Z,51.27
2018-01-10T16:28:37.355Z,43.10
2018-01-10T16:31:05.150Z,44.93
2018-01-10T16:33:32.614Z,46.17
2018-01-10T16:36:00.065Z,56.47
2018-01-10T16:38:27.824Z,58.87
2018-01-10T16:40:55.290Z,58.10
2018-01-10T16:43:22.753Z,61.40
2018-01-10T16:45:50.561Z,51.13
2018-01-10T16:48:18.027Z,45.60
2018-01-10T16:50:45.489Z,56.70
2018-01-10T16:53:13.350Z,52.03
2018-01-10T16:55:40.813Z,51.50
2018-01-10T16:58:08.281Z,85.00
2018-01-10T17:00:36.132Z,68.17
2018-01-10T17:03:03.610Z,57.07
2018-01-10T17:05:31.073Z,57.67
2018-01-10T17:07:58.896Z,55.63
2018-01-10T17:10:26.358Z,52.60
2018-01-10T17:12:53.813Z,52.40
2018-01-10T17:15:21.574Z,49.37
2018-01-10T17:17:49.054Z,60.17
2018-01-10T17:20:16.522Z,66.47
2018-01-10T17:22:45.793Z,58.43
2018-01-10T17:25:13.254Z,56.43
2018-01-10T17:27:40.726Z,50.87
2018-01-10T17:30:08.483Z,51.80
2018-01-10T17:32:35.948Z,47.97
2018-01-10T17:35:03.410Z,59.13
2018-01-10T17:37:31.164Z,45.20
2018-01-10T17:39:58.631Z,47.03
2018-01-10T17:42:26.088Z,37.90
2018-01-10T17:44:53.855Z,45.83
2018-01-10T17:47:21.325Z,42.50
2018-01-10T17:49:48.816Z,45.23
2018-01-10T17:52:16.572Z,55.60
2018-01-10T17:54:44.033Z,61.33
2018-01-10T17:57:11.507Z,52.47
2018-01-10T17:59:39.540Z,36.63
2018-01-10T18:02:07.342Z,44.40
2018-01-10T18:04:34.805Z,44.00
2018-01-10T18:07:02.461Z,38.30
2018-01-10T18:09:29.950Z,34.77
2018-01-10T18:11:57.447Z,43.13
2018-01-10T18:14:25.216Z,31.83
2018-01-10T18:16:52.690Z,33.13
2018-01-10T18:19:20.155Z,43.90
2018-01-10T18:21:47.904Z,44.27
2018-01-10T18:24:15.757Z,32.07
2018-01-10T18:26:43.229Z,34.70
2018-01-10T18:29:10.961Z,39.93
2018-01-10T18:31:38.430Z,39.10
2018-01-10T18:34:05.889Z,36.50
2018-01-10T18:36:33.788Z,36.57
2018-01-10T18:39:01.248Z,41.90
2018-01-10T18:41:28.721Z,34.60
2018-01-10T18:43:56.602Z,42.33
2018-01-10T18:46:24.069Z,38.83
2018-01-10T18:48:51.532Z,37.63
2018-01-10T18:51:19.594Z,34.13
2018-01-10T18:53:47.056Z,34.60
2018-01-10T18:56:14.513Z,40.83
2018-01-10T18:58:42.234Z,32.97
2018-01-10T19:01:09.697Z,34.43
2018-01-10T19:03:37.166Z,39.30
2018-01-10T19:06:04.951Z,35.63
2018-01-10T19:08:32.421Z,39.03
2018-01-10T19:10:59.906Z,33.57
2018-01-10T19:13:27.972Z,41.70
2018-01-10T19:15:55.445Z,36.33
2018-01-10T19:18:22.908Z,44.78
2018-01-10T19:20:50.629Z,43.42
2018-01-10T19:23:18.158Z,44.40
2018-01-10T19:25:45.935Z,48.83
2018-01-10T19:28:13.649Z,36.10
2018-01-10T19:30:41.114Z,38.40
2018-01-10T19:33:08.586Z,41.43
2018-01-10T19:35:36.328Z,44.90
2018-01-10T19:38:03.789Z,35.37
2018-01-10T19:40:31.308Z,46.63
2018-01-10T19:42:59.308Z,35.80
2018-01-10T19:45:26.769Z,34.73
2018-01-10T19:47:54.246Z,31.70
2018-01-10T19:50:21.984Z,39.00
2018-01-10T19:52:49.444Z,37.33
2018-01-10T19:55:16.919Z,36.20
2018-01-10T19:57:44.681Z,45.73
2018-01-10T20:00:12.145Z,40.37
2018-01-10T20:02:39.606Z,36.97
2018-01-10T20:05:07.357Z,34.80
2018-01-10T20:07:34.807Z,39.63
2018-01-10T20:10:02.284Z,32.93
2018-01-10T20:12:30.057Z,32.10
2018-01-10T20:14:57.544Z,35.13
2018-01-10T20:17:25.113Z,35.33
2018-01-10T20:19:53.370Z,53.77
2018-01-10T20:22:20.839Z,39.70
2018-01-10T20:24:48.296Z,34.70
2018-01-10T20:27:16.968Z,33.50
2018-01-10T20:29:44.441Z,40.00
2018-01-10T20:32:11.909Z,42.20
2018-01-10T20:34:39.695Z,31.57
2018-01-10T20:37:07.426Z,35.13
2018-01-10T20:39:34.880Z,46.67
2018-01-10T20:42:02.944Z,38.00
2018-01-10T20:44:31.509Z,32.43
2018-01-10T20:46:58.969Z,39.90
2018-01-10T20:49:26.861Z,39.70
2018-01-10T20:51:54.318Z,31.50
2018-01-10T20:54:22.406Z,37.93
2018-01-10T20:56:50.778Z,49.47
2018-01-10T20:59:18.249Z,35.73
2018-01-10T21:01:45.747Z,42.83
2018-01-10T21:04:14.082Z,38.03
2018-01-10T21:06:42.742Z,35.33
2018-01-10T21:09:10.976Z,52.43
2018-01-10T21:11:39.224Z,32.37
2018-01-10T21:14:06.690Z,31.67
2018-01-10T21:16:34.680Z,34.90
2018-01-10T21:19:02.533Z,31.33
2018-01-10T21:21:29.995Z,37.27
2018-01-10T21:23:57.463Z,36.97
2018-01-10T21:26:25.229Z,39.30
2018-01-10T21:28:53.825Z,36.57
2018-01-10T21:31:21.287Z,44.87
2018-01-10T21:33:49.142Z,33.00
2018-01-10T21:36:17.278Z,33.03
2018-01-10T21:38:45.024Z,39.23
2018-01-10T21:41:13.051Z,43.07
2018-01-10T21:43:40.505Z,49.60
2018-01-10T21:46:07.988Z,33.23
2018-01-10T21:48:36.399Z,33.70
2018-01-10T21:51:03.859Z,38.70
2018-01-10T21:53:31.335Z,41.30
2018-01-10T21:55:59.666Z,34.00
2018-01-10T21:58:27.121Z,36.63
2018-01-10T22:00:54.596Z,35.87
2018-01-10T22:03:23.639Z,39.43
2018-01-10T22:05:51.097Z,36.13
2018-01-10T22:08:18.545Z,38.00
2018-01-10T22:10:46.261Z,35.80
2018-01-10T22:13:13.721Z,35.00
2018-01-10T22:15:41.183Z,34.57
2018-01-10T22:18:09.640Z,45.50
2018-01-10T22:20:37.092Z,34.83
2018-01-10T22:23:04.543Z,40.20
2018-01-10T22:25:32.253Z,32.77
2018-01-10T22:27:59.733Z,39.57
2018-01-10T22:30:28.773Z,36.97
2018-01-10T22:32:56.441Z,34.97
2018-01-10T22:35:23.970Z,32.87
2018-01-10T22:37:51.432Z,43.80
2018-01-10T22:40:19.160Z,35.07
2018-01-10T22:42:46.644Z,38.50
2018-01-10T22:45:14.115Z,34.20
2018-01-10T22:47:41.847Z,40.57
2018-01-10T22:50:09.317Z,39.33
2018-01-10T22:52:36.782Z,44.63
2018-01-10T22:55:04.537Z,38.53
2018-01-10T22:57:31.993Z,36.50
2018-01-10T22:59:59.460Z,39.70
2018-01-10T23:02:27.183Z,45.33
2018-01-10T23:04:54.638Z,41.23
2018-01-10T23:07:22.090Z,45.13
2018-01-10T23:09:49.906Z,36.77
2018-01-10T23:12:17.357Z,52.13
2018-01-10T23:14:44.817Z,42.27
2018-01-10T23:17:12.592Z,40.50
2018-01-10T23:19:40.225Z,42.40
2018-01-10T23:22:07.889Z,53.73
2018-01-10T23:24:35.900Z,41.97
2018-01-10T23:27:03.379Z,38.03
2018-01-10T23:29:30.856Z,44.17
2018-01-10T23:31:59.193Z,40.77
2018-01-10T23:34:26.653Z,48.47
2018-01-10T23:36:54.109Z,47.70
2018-01-10T23:39:21.880Z,46.33
2018-01-10T23:41:49.349Z,51.57
2018-01-10T23:44:16.808Z,41.80
2018-01-10T23:46:44.568Z,42.53
2018-01-10T23:49:12.086Z,52.70
2018-01-10T23:51:39.510Z,47.97
2018-01-10T23:54:07.261Z,44.80
2018-01-10T23:56:34.717Z,46.10
2018-01-10T23:59:02.166Z,47.40
